createdAt,value
2017-11-20T00:02:18.016Z,100875.47
2017-11-20T00:04:43.814Z,100873.27
2017-11-20T00:07:09.629Z,100870.34
2017-11-20T00:09:35.434Z,100868.87
2017-11-20T00:12:01.240Z,100859.03
2017-11-20T00:14:27.160Z,100856.76
2017-11-20T00:16:52.961Z,100862.93
2017-11-20T00:19:18.782Z,100855.24
2017-11-20T00:21:44.966Z,100861.72
2017-11-20T00:24:10.786Z,100852.54
2017-11-20T00:26:36.585Z,100858.37
2017-11-20T00:29:02.502Z,100859.98
2017-11-20T00:31:28.322Z,100861.42
2017-11-20T00:33:54.154Z,100867.92
2017-11-20T00:36:19.998Z,100869.28
2017-11-20T00:38:45.797Z,100866.68
2017-11-20T00:41:11.614Z,100862.02
2017-11-20T00:43:37.425Z,100873.03
2017-11-20T00:46:03.218Z,100880.63
2017-11-20T00:48:29.035Z,100870.63
2017-11-20T00:50:54.837Z,100873.23
2017-11-20T00:53:20.651Z,100876.43
2017-11-20T00:55:46.839Z,100876.53
2017-11-20T00:58:12.653Z,100881.23
2017-11-20T01:00:38.458Z,100885.39
2017-11-20T01:03:04.271Z,100892.25
2017-11-20T01:05:30.089Z,100889.70
2017-11-20T01:07:55.920Z,100884.08
2017-11-20T01:10:21.760Z,100885.17
2017-11-20T01:12:47.568Z,100889.83
2017-11-20T01:15:13.378Z,100893.56
2017-11-20T01:17:39.187Z,100902.08
2017-11-20T01:20:04.981Z,100902.59
2017-11-20T01:22:30.781Z,100907.19
2017-11-20T01:24:56.628Z,100894.33
2017-11-20T01:27:22.453Z,100904.94
2017-11-20T01:29:48.287Z,100893.00
2017-11-20T01:32:14.117Z,100899.12
2017-11-20T01:34:40.027Z,100890.81
2017-11-20T01:37:05.826Z,100886.28
2017-11-20T01:39:31.655Z,100871.46
2017-11-20T01:41:57.453Z,100865.09
2017-11-20T01:44:23.285Z,100874.45
2017-11-20T01:46:49.104Z,100881.69
2017-11-20T01:49:14.932Z,100891.48
2017-11-20T01:51:40.734Z,100890.79
2017-11-20T01:54:06.599Z,100893.22
2017-11-20T01:56:32.428Z,100889.91
2017-11-20T01:58:58.231Z,100897.33
2017-11-20T02:01:24.169Z,100892.13
2017-11-20T02:06:22.619Z,100867.64
2017-11-20T02:08:48.470Z,100887.80
2017-11-20T02:11:14.261Z,100904.09
2017-11-20T02:13:40.080Z,100908.04
2017-11-20T02:16:05.899Z,100909.02
2017-11-20T02:18:31.718Z,100903.33
2017-11-20T02:20:57.552Z,100897.43
2017-11-20T02:23:23.406Z,100898.36
2017-11-20T02:25:49.232Z,100894.30
2017-11-20T02:28:15.049Z,100899.77
2017-11-20T02:30:40.895Z,100899.50
2017-11-20T02:33:06.756Z,100895.33
2017-11-20T02:35:32.575Z,100897.59
2017-11-20T02:37:58.450Z,100901.33
2017-11-20T02:40:24.267Z,100901.28
2017-11-20T02:42:50.093Z,100900.79
2017-11-20T02:45:15.959Z,100901.39
2017-11-20T02:47:41.783Z,100894.99
2017-11-20T02:50:07.621Z,100902.36
2017-11-20T02:52:33.790Z,100899.77
2017-11-20T02:54:59.603Z,100901.66
2017-11-20T02:57:25.443Z,100901.31
2017-11-20T02:59:51.265Z,100897.49
2017-11-20T03:02:17.100Z,100902.30
2017-11-20T03:04:42.913Z,100901.05
2017-11-20T03:07:09.115Z,100905.05
2017-11-20T03:09:34.945Z,100900.16
2017-11-20T03:12:00.751Z,100902.06
2017-11-20T03:14:27.436Z,100903.31
2017-11-20T03:16:53.269Z,100903.59
2017-11-20T03:19:19.056Z,100897.02
2017-11-20T03:21:44.894Z,100895.13
2017-11-20T03:24:10.731Z,100903.24
2017-11-20T03:26:36.532Z,100902.45
2017-11-20T03:29:02.602Z,100898.84
2017-11-20T03:31:28.425Z,100894.38
2017-11-20T03:33:54.237Z,100899.66
2017-11-20T03:36:20.162Z,100901.05
2017-11-20T03:38:46.014Z,100902.28
2017-11-20T03:41:11.874Z,100903.06
2017-11-20T03:43:38.016Z,100904.64
2017-11-20T03:46:03.865Z,100911.77
2017-11-20T03:48:29.698Z,100913.12
2017-11-20T03:50:55.574Z,100921.23
2017-11-20T03:53:21.385Z,100904.63
2017-11-20T03:55:47.173Z,100901.92
2017-11-20T03:58:13.015Z,100905.08
2017-11-20T04:00:38.877Z,100899.22
2017-11-20T04:03:04.710Z,100898.25
2017-11-20T04:05:30.501Z,100898.94
2017-11-20T04:07:56.310Z,100906.28
2017-11-20T04:10:22.145Z,100903.84
2017-11-20T04:12:47.950Z,100895.88
2017-11-20T04:15:13.783Z,100897.23
2017-11-20T04:17:39.864Z,100901.39
2017-11-20T04:20:05.665Z,100898.30
2017-11-20T04:22:31.467Z,100904.60
2017-11-20T04:24:57.647Z,100897.06
2017-11-20T04:27:23.474Z,100894.86
2017-11-20T04:29:49.273Z,100896.24
2017-11-20T04:32:15.100Z,100896.15
2017-11-20T04:34:40.925Z,100889.45
2017-11-20T04:37:06.751Z,100891.20
2017-11-20T04:39:32.608Z,100897.48
2017-11-20T04:41:58.412Z,100896.44
2017-11-20T04:44:24.256Z,100899.98
2017-11-20T04:46:50.047Z,100896.39
2017-11-20T04:49:15.862Z,100894.20
2017-11-20T04:51:41.677Z,100897.60
2017-11-20T04:54:07.480Z,100900.75
2017-11-20T04:56:33.311Z,100897.83
2017-11-20T04:58:59.242Z,100905.34
2017-11-20T05:01:25.516Z,100903.38
2017-11-20T05:03:52.085Z,100906.05
2017-11-20T05:06:18.764Z,100905.68
2017-11-20T05:08:44.623Z,100898.69
2017-11-20T05:11:11.188Z,100900.69
2017-11-20T05:13:38.030Z,100906.86
2017-11-20T05:16:04.631Z,100903.27
2017-11-20T05:18:30.474Z,100902.42
2017-11-20T05:20:57.121Z,100906.70
2017-11-20T05:23:22.961Z,100907.55
2017-11-20T05:25:48.778Z,100913.05
2017-11-20T05:28:14.617Z,100914.10
2017-11-20T05:30:40.417Z,100912.90
2017-11-20T05:33:06.220Z,100920.23
2017-11-20T05:35:32.065Z,100919.85
2017-11-20T05:37:57.871Z,100914.84
2017-11-20T05:40:23.669Z,100917.03
2017-11-20T05:42:50.079Z,100913.81
2017-11-20T05:45:15.894Z,100917.16
2017-11-20T05:47:41.685Z,100917.48
2017-11-20T05:50:07.823Z,100917.86
2017-11-20T05:52:33.625Z,100917.42
2017-11-20T05:54:59.418Z,100920.44
2017-11-20T05:59:57.931Z,100921.98
2017-11-20T06:02:23.746Z,100921.98
2017-11-20T06:04:49.575Z,100917.52
2017-11-20T06:07:15.365Z,100928.61
2017-11-20T06:09:41.170Z,100928.73
2017-11-20T06:12:07.366Z,100923.14
2017-11-20T06:14:33.168Z,100933.08
2017-11-20T06:16:58.972Z,100943.27
2017-11-20T06:19:24.786Z,100943.83
2017-11-20T06:21:50.592Z,100937.67
2017-11-20T06:24:16.431Z,100935.25
2017-11-20T06:26:42.260Z,100929.45
2017-11-20T06:29:08.073Z,100931.81
2017-11-20T06:31:33.894Z,100937.22
2017-11-20T06:33:59.703Z,100937.74
2017-11-20T06:36:25.493Z,100936.56
2017-11-20T06:38:51.316Z,100939.69
2017-11-20T06:41:17.124Z,100937.83
2017-11-20T06:43:42.920Z,100936.38
2017-11-20T06:46:08.750Z,100938.70
2017-11-20T06:48:34.575Z,100939.39
2017-11-20T06:51:00.390Z,100942.46
2017-11-20T06:53:26.230Z,100940.07
2017-11-20T06:55:52.038Z,100938.17
2017-11-20T06:58:17.839Z,100934.83
2017-11-20T07:00:43.971Z,100935.66
2017-11-20T07:03:09.784Z,100942.80
2017-11-20T07:05:35.564Z,100942.25
2017-11-20T07:08:01.730Z,100937.36
2017-11-20T07:10:27.544Z,100946.28
2017-11-20T07:12:53.341Z,100946.00
2017-11-20T07:15:19.464Z,100946.59
2017-11-20T07:17:45.260Z,100944.14
2017-11-20T07:20:11.081Z,100935.22
2017-11-20T07:22:37.225Z,100944.05
2017-11-20T07:28:16.919Z,100939.41
2017-11-20T07:30:53.912Z,100941.90
2017-11-20T07:33:19.786Z,100945.34
2017-11-20T07:35:57.947Z,100945.53
2017-11-20T07:38:36.422Z,100943.05
2017-11-20T07:41:03.406Z,100938.59
2017-11-20T07:43:29.289Z,100935.45
2017-11-20T07:45:55.882Z,100938.43
2017-11-20T07:48:21.694Z,100938.77
2017-11-20T07:50:47.497Z,100937.34
2017-11-20T07:53:13.987Z,100941.45
2017-11-20T07:55:39.820Z,100936.30
2017-11-20T07:58:05.632Z,100938.59
2017-11-20T08:00:31.745Z,100942.66
2017-11-20T08:02:57.536Z,100943.46
2017-11-20T08:05:23.332Z,100945.73
2017-11-20T08:07:49.429Z,100944.56
2017-11-20T08:10:15.252Z,100945.55
2017-11-20T08:12:41.049Z,100954.20
2017-11-20T08:15:06.982Z,100952.95
2017-11-20T08:17:32.783Z,100955.46
2017-11-20T08:19:58.581Z,100952.73
2017-11-20T08:22:24.720Z,100953.39
2017-11-20T08:24:50.511Z,100949.44
2017-11-20T08:27:16.313Z,100943.32
2017-11-20T08:29:42.145Z,100948.16
2017-11-20T08:32:07.958Z,100952.05
2017-11-20T08:34:33.759Z,100948.86
2017-11-20T08:36:59.571Z,100948.48
2017-11-20T08:39:25.416Z,100952.01
2017-11-20T08:41:51.213Z,100952.73
2017-11-20T08:44:17.374Z,100953.96
2017-11-20T08:46:43.521Z,100949.44
2017-11-20T08:49:09.391Z,100949.16
2017-11-20T08:51:35.259Z,100948.56
2017-11-20T08:54:01.103Z,100953.48
2017-11-20T08:56:26.920Z,100949.55
2017-11-20T08:58:52.928Z,100950.34
2017-11-20T09:01:18.770Z,100938.01
2017-11-20T09:03:44.583Z,100932.41
2017-11-20T09:06:10.387Z,100935.94
2017-11-20T09:08:36.261Z,100942.13
2017-11-20T09:11:02.086Z,100942.51
2017-11-20T09:13:27.875Z,100946.12
2017-11-20T09:15:53.714Z,100948.94
2017-11-20T09:18:19.533Z,100943.86
2017-11-20T09:20:45.341Z,100946.70
2017-11-20T09:23:11.817Z,100947.77
2017-11-20T09:25:37.620Z,100943.47
2017-11-20T09:28:03.815Z,100943.61
2017-11-20T09:30:30.444Z,100940.28
2017-11-20T09:32:56.773Z,100946.89
2017-11-20T09:35:22.640Z,100940.69
2017-11-20T09:37:49.024Z,100940.72
2017-11-20T09:40:15.219Z,100941.67
2017-11-20T09:42:41.036Z,100940.55
2017-11-20T09:45:07.053Z,100942.14
2017-11-20T09:47:33.175Z,100936.91
2017-11-20T09:49:58.997Z,100939.18
2017-11-20T09:52:24.788Z,100941.95
2017-11-20T09:54:50.612Z,100937.50
2017-11-20T09:57:16.412Z,100946.13
2017-11-20T09:59:42.548Z,100946.90
2017-11-20T10:02:08.402Z,100943.53
2017-11-20T10:04:34.228Z,100946.44
2017-11-20T10:07:00.337Z,100944.40
2017-11-20T10:09:26.202Z,100940.20
2017-11-20T10:11:52.038Z,100946.13
2017-11-20T10:14:17.878Z,100948.77
2017-11-20T10:16:43.668Z,100947.78
2017-11-20T10:19:09.481Z,100948.90
2017-11-20T10:21:35.311Z,100947.12
2017-11-20T10:24:01.126Z,100945.55
2017-11-20T10:26:26.922Z,100941.72
2017-11-20T10:28:52.789Z,100937.36
2017-11-20T10:31:25.980Z,100938.17
2017-11-20T10:33:52.335Z,100934.56
2017-11-20T10:36:18.155Z,100931.38
2017-11-20T10:38:44.073Z,100932.41
2017-11-20T10:41:10.180Z,100926.41
2017-11-20T10:43:37.238Z,100933.32
2017-11-20T10:46:03.147Z,100926.07
2017-11-20T10:48:28.990Z,100926.62
2017-11-20T10:50:55.379Z,100924.12
2017-11-20T10:53:22.250Z,100929.70
2017-11-20T10:55:48.485Z,100930.19
2017-11-20T10:58:14.315Z,100921.93
2017-11-20T11:00:40.120Z,100922.31
2017-11-20T11:03:06.240Z,100920.56
2017-11-20T11:05:32.673Z,100924.09
2017-11-20T11:07:58.489Z,100920.64
2017-11-20T11:10:24.308Z,100920.67
2017-11-20T11:12:50.288Z,100917.24
2017-11-20T11:15:16.405Z,100912.67
2017-11-20T11:17:42.236Z,100911.44
2017-11-20T11:20:08.106Z,100911.22
2017-11-20T11:22:33.927Z,100919.77
2017-11-20T11:24:59.789Z,100910.25
2017-11-20T11:27:25.956Z,100910.05
2017-11-20T11:29:51.761Z,100905.11
2017-11-20T11:32:17.575Z,100909.62
2017-11-20T11:34:43.398Z,100908.13
2017-11-20T11:37:09.198Z,100902.69
2017-11-20T11:39:35.022Z,100900.78
2017-11-20T11:42:00.853Z,100895.92
2017-11-20T11:44:26.678Z,100895.22
2017-11-20T11:46:52.510Z,100889.30
2017-11-20T11:49:18.743Z,100889.38
2017-11-20T11:51:44.688Z,100887.77
2017-11-20T11:54:10.483Z,100888.56
2017-11-20T11:56:36.329Z,100882.19
2017-11-20T11:59:02.136Z,100882.98
2017-11-20T12:01:27.948Z,100883.96
2017-11-20T12:03:54.046Z,100880.41
2017-11-20T12:06:19.931Z,100874.89
2017-11-20T12:08:45.760Z,100873.59
2017-11-20T12:11:11.586Z,100873.27
2017-11-20T12:13:37.397Z,100873.57
2017-11-20T12:16:03.227Z,100874.45
2017-11-20T12:18:29.058Z,100876.20
2017-11-20T12:20:54.865Z,100879.56
2017-11-20T12:23:20.667Z,100871.27
2017-11-20T12:25:46.831Z,100869.63
2017-11-20T12:28:12.659Z,100863.65
2017-11-20T12:30:38.486Z,100854.45
2017-11-20T12:33:04.313Z,100864.75
2017-11-20T12:35:30.124Z,100860.55
2017-11-20T12:37:55.949Z,100860.95
2017-11-20T12:40:21.744Z,100857.13
2017-11-20T12:42:47.547Z,100859.58
2017-11-20T12:45:13.391Z,100864.03
2017-11-20T12:47:39.249Z,100863.71
2017-11-20T12:50:05.082Z,100841.36
2017-11-20T12:52:30.963Z,100856.06
2017-11-20T12:54:56.776Z,100857.29
2017-11-20T12:57:22.591Z,100851.80
2017-11-20T12:59:48.570Z,100855.47
2017-11-20T13:02:14.377Z,100844.46
2017-11-20T13:04:40.201Z,100846.95
2017-11-20T13:07:06.547Z,100842.53
2017-11-20T13:09:32.378Z,100847.34
2017-11-20T13:11:58.192Z,100850.16
2017-11-20T13:14:24.061Z,100848.59
2017-11-20T13:16:50.077Z,100839.27
2017-11-20T13:19:15.909Z,100839.38
2017-11-20T13:21:42.051Z,100834.98
2017-11-20T13:24:07.891Z,100836.20
2017-11-20T13:26:34.016Z,100832.31
2017-11-20T13:28:59.917Z,100836.48
2017-11-20T13:31:25.789Z,100835.07
2017-11-20T13:33:51.725Z,100829.04
2017-11-20T13:36:17.627Z,100828.58
2017-11-20T13:38:43.445Z,100830.64
2017-11-20T13:41:09.252Z,100833.91
2017-11-20T13:43:35.087Z,100825.05
2017-11-20T13:46:01.161Z,100826.53
2017-11-20T13:48:26.987Z,100826.79
2017-11-20T13:50:53.130Z,100819.58
2017-11-20T13:53:19.426Z,100818.08
2017-11-20T13:55:45.917Z,100808.92
2017-11-20T13:58:11.790Z,100814.13
2017-11-20T14:00:37.609Z,100813.88
2017-11-20T14:03:03.747Z,100811.33
2017-11-20T14:05:29.634Z,100808.34
2017-11-20T14:07:57.022Z,100810.89
2017-11-20T14:10:22.825Z,100808.58
2017-11-20T14:12:48.834Z,100807.07
2017-11-20T14:15:14.707Z,100805.45
2017-11-20T14:17:40.566Z,100799.49
2017-11-20T14:20:06.384Z,100801.87
2017-11-20T14:22:32.276Z,100790.63
2017-11-20T14:24:58.138Z,100799.11
2017-11-20T14:27:23.965Z,100795.03
2017-11-20T14:29:49.799Z,100793.61
2017-11-20T14:32:15.815Z,100792.71
2017-11-20T14:34:41.725Z,100789.56
2017-11-20T14:37:07.849Z,100783.66
2017-11-20T14:39:33.722Z,100790.42
2017-11-20T14:41:59.913Z,100784.64
2017-11-20T14:44:25.750Z,100789.99
2017-11-20T14:46:51.935Z,100783.51
2017-11-20T14:49:18.022Z,100765.51
2017-11-20T14:51:44.874Z,100783.16
2017-11-20T14:54:11.573Z,100778.97
2017-11-20T14:56:37.519Z,100779.43
2017-11-20T14:59:03.376Z,100779.81
2017-11-20T15:01:35.151Z,100776.19
2017-11-20T15:04:01.253Z,100778.42
2017-11-20T15:06:27.267Z,100771.27
2017-11-20T15:08:53.366Z,100775.93
2017-11-20T15:11:19.493Z,100765.28
2017-11-20T15:13:45.619Z,100768.90
2017-11-20T15:16:11.472Z,100766.84
2017-11-20T15:18:37.495Z,100770.69
2017-11-20T15:21:03.357Z,100773.35
2017-11-20T15:23:29.184Z,100769.77
2017-11-20T15:25:55.073Z,100763.89
2017-11-20T15:28:21.299Z,100764.47
2017-11-20T15:30:47.172Z,100758.63
2017-11-20T15:33:13.031Z,100765.71
2017-11-20T15:35:39.019Z,100763.17
2017-11-20T15:38:04.849Z,100760.48
2017-11-20T15:40:31.571Z,100754.69
2017-11-20T15:42:57.421Z,100757.44
2017-11-20T15:45:24.483Z,100749.77
2017-11-20T15:47:50.325Z,100747.42
2017-11-20T15:50:16.145Z,100740.20
2017-11-20T15:52:42.401Z,100736.05
2017-11-20T15:55:09.103Z,100737.23
2017-11-20T15:57:35.906Z,100726.65
2017-11-20T16:00:02.345Z,100729.66
2017-11-20T16:02:28.145Z,100738.54
2017-11-20T16:04:54.017Z,100739.55
2017-11-20T16:07:20.249Z,100733.45
2017-11-20T16:09:46.065Z,100733.08
2017-11-20T16:12:11.872Z,100735.56
2017-11-20T16:14:37.737Z,100730.81
2017-11-20T16:17:03.757Z,100729.34
2017-11-20T16:19:29.553Z,100725.93
2017-11-20T16:21:55.579Z,100727.52
2017-11-20T16:24:21.413Z,100726.39
2017-11-20T16:26:47.755Z,100726.25
2017-11-20T16:29:13.836Z,100724.66
2017-11-20T16:31:39.646Z,100731.92
2017-11-20T16:34:05.581Z,100719.74
2017-11-20T16:36:31.437Z,100721.99
2017-11-20T16:38:57.274Z,100721.76
2017-11-20T16:41:23.078Z,100714.05
2017-11-20T16:43:48.919Z,100711.80
2017-11-20T16:46:14.733Z,100703.90
2017-11-20T16:48:40.549Z,100715.56
2017-11-20T16:51:06.377Z,100711.97
2017-11-20T16:53:32.189Z,100707.53
2017-11-20T16:55:58.013Z,100703.33
2017-11-20T16:58:36.317Z,100707.13
2017-11-20T17:01:02.476Z,100704.38
2017-11-20T17:03:31.277Z,100706.61
2017-11-20T17:05:57.092Z,100701.77
2017-11-20T17:08:22.994Z,100700.00
2017-11-20T17:10:48.872Z,100697.92
2017-11-20T17:13:14.704Z,100695.34
2017-11-20T17:15:40.797Z,100699.77
2017-11-20T17:18:06.613Z,100690.95
2017-11-20T17:20:32.503Z,100698.84
2017-11-20T17:22:58.967Z,100687.39
2017-11-20T17:25:24.845Z,100686.23
2017-11-20T17:27:50.820Z,100678.23
2017-11-20T17:30:16.685Z,100680.52
2017-11-20T17:32:42.518Z,100683.09
2017-11-20T17:35:08.334Z,100676.63
2017-11-20T17:37:34.266Z,100679.30
2017-11-20T17:40:00.455Z,100675.27
2017-11-20T17:42:26.255Z,100677.23
2017-11-20T17:44:52.874Z,100671.11
2017-11-20T17:47:18.685Z,100676.44
2017-11-20T17:49:44.532Z,100669.76
2017-11-20T17:52:10.753Z,100671.37
2017-11-20T17:54:36.688Z,100669.00
2017-11-20T17:57:02.545Z,100670.08
2017-11-20T17:59:29.266Z,100664.95
2017-11-20T18:01:55.204Z,100661.92
2017-11-20T18:04:21.100Z,100665.13
2017-11-20T18:06:47.309Z,100653.91
2017-11-20T18:09:13.872Z,100656.55
2017-11-20T18:11:40.397Z,100657.90
2017-11-20T18:14:07.051Z,100656.05
2017-11-20T18:16:33.599Z,100657.96
2017-11-20T18:18:59.767Z,100658.22
2017-11-20T18:21:25.957Z,100656.45
2017-11-20T18:23:51.942Z,100652.97
2017-11-20T18:26:17.784Z,100652.80
2017-11-20T18:28:44.258Z,100654.70
2017-11-20T18:31:10.247Z,100637.69
2017-11-20T18:33:36.180Z,100627.25
2017-11-20T18:36:03.067Z,100629.09
2017-11-20T18:38:29.585Z,100631.31
2017-11-20T18:40:55.990Z,100630.91
2017-11-20T18:43:21.961Z,100621.41
2017-11-20T18:45:49.038Z,100622.12
2017-11-20T18:48:15.803Z,100621.26
2017-11-20T18:50:42.413Z,100619.06
2017-11-20T18:53:09.101Z,100611.09
2017-11-20T18:55:36.577Z,100614.19
2017-11-20T18:58:02.430Z,100618.86
2017-11-20T19:00:40.756Z,100610.71
2017-11-20T19:03:19.588Z,100605.89
2017-11-20T19:05:57.768Z,100618.89
2017-11-20T19:08:36.190Z,100613.63
2017-11-20T19:11:03.046Z,100615.55
2017-11-20T19:13:28.880Z,100608.95
2017-11-20T19:15:54.690Z,100608.89
2017-11-20T19:18:20.555Z,100614.09
2017-11-20T19:20:47.211Z,100609.55
2017-11-20T19:23:13.049Z,100609.67
2017-11-20T19:25:39.268Z,100603.70
2017-11-20T19:28:05.901Z,100601.77
2017-11-20T19:30:32.647Z,100606.98
2017-11-20T19:32:59.377Z,100604.41
2017-11-20T19:35:26.020Z,100611.69
2017-11-20T19:37:52.901Z,100604.44
2017-11-20T19:40:19.806Z,100611.05
2017-11-20T19:42:47.238Z,100611.98
2017-11-20T19:45:14.118Z,100609.27
2017-11-20T19:47:41.395Z,100605.44
2017-11-20T19:50:08.473Z,100607.95
2017-11-20T19:52:34.822Z,100603.91
2017-11-20T19:55:01.788Z,100604.84
2017-11-20T19:57:28.707Z,100602.61
2017-11-20T19:59:55.802Z,100598.88
2017-11-20T20:02:22.684Z,100595.76
2017-11-20T20:04:49.542Z,100588.42
2017-11-20T20:07:16.643Z,100574.06
2017-11-20T20:09:43.377Z,100572.87
2017-11-20T20:12:10.581Z,100572.33
2017-11-20T20:14:49.438Z,100561.59
2017-11-20T20:17:16.037Z,100559.24
2017-11-20T20:19:42.325Z,100556.03
2017-11-20T20:22:10.116Z,100556.75
2017-11-20T20:24:37.320Z,100549.39
2017-11-20T20:27:04.567Z,100549.80
2017-11-20T20:29:30.548Z,100534.41
2017-11-20T20:31:56.357Z,100545.23
2017-11-20T20:34:22.534Z,100539.86
2017-11-20T20:36:49.587Z,100531.55
2017-11-20T20:39:16.166Z,100538.05
2017-11-20T20:41:42.957Z,100536.36
2017-11-20T20:44:09.251Z,100540.09
2017-11-20T20:46:35.172Z,100540.64
2017-11-20T20:49:01.659Z,100548.47
2017-11-20T20:51:27.552Z,100541.97
2017-11-20T20:53:53.345Z,100535.69
2017-11-20T20:56:19.182Z,100528.19
2017-11-20T20:58:44.982Z,100533.53
2017-11-20T21:01:10.881Z,100531.05
2017-11-20T21:03:37.063Z,100537.11
2017-11-20T21:06:03.221Z,100534.30
2017-11-20T21:08:28.993Z,100527.71
2017-11-20T21:11:01.181Z,100532.33
2017-11-20T21:13:27.006Z,100532.11
2017-11-20T21:15:52.796Z,100533.42
2017-11-20T21:18:18.870Z,100544.98
2017-11-20T21:20:44.672Z,100544.00
2017-11-20T21:23:10.478Z,100545.97
2017-11-20T21:25:36.710Z,100551.83
2017-11-20T21:28:02.536Z,100552.52
2017-11-20T21:30:28.636Z,100558.21
2017-11-20T21:32:55.381Z,100559.45
2017-11-20T21:35:21.379Z,100566.40
2017-11-20T21:37:47.321Z,100560.20
2017-11-20T21:40:13.204Z,100554.90
2017-11-20T21:42:40.144Z,100557.12
2017-11-20T21:45:06.228Z,100562.46
2017-11-20T21:47:32.081Z,100560.41
2017-11-20T21:49:57.904Z,100557.92
2017-11-20T21:52:23.695Z,100554.02
2017-11-20T21:54:49.536Z,100551.80
2017-11-20T21:57:15.550Z,100556.70
2017-11-20T21:59:41.365Z,100554.08
2017-11-20T22:02:08.082Z,100556.02
2017-11-20T22:04:33.913Z,100557.57
2017-11-20T22:07:00.318Z,100555.44
2017-11-20T22:09:26.136Z,100552.51
2017-11-20T22:11:52.368Z,100546.39
2017-11-20T22:14:18.203Z,100535.59
2017-11-20T22:16:44.309Z,100525.73
2017-11-20T22:19:10.126Z,100516.88
2017-11-20T22:21:36.154Z,100515.66
2017-11-20T22:24:04.021Z,100503.16
2017-11-20T22:26:29.897Z,100502.30
2017-11-20T22:28:55.729Z,100498.28
2017-11-20T22:31:21.961Z,100491.31
2017-11-20T22:33:47.764Z,100484.39
2017-11-20T22:36:13.922Z,100483.53
2017-11-20T22:38:39.849Z,100478.34
2017-11-20T22:41:05.981Z,100473.94
2017-11-20T22:43:31.833Z,100473.98
2017-11-20T22:45:57.661Z,100478.41
2017-11-20T22:48:23.471Z,100472.17
2017-11-20T22:50:49.274Z,100467.71
2017-11-20T22:53:15.471Z,100469.47
2017-11-20T22:55:41.264Z,100464.41
2017-11-20T22:58:08.034Z,100473.91
2017-11-20T23:00:34.361Z,100474.59
2017-11-20T23:03:00.174Z,100466.57
2017-11-20T23:05:25.992Z,100466.88
2017-11-20T23:07:51.817Z,100463.66
2017-11-20T23:10:17.600Z,100465.25
2017-11-20T23:12:43.425Z,100463.38
2017-11-20T23:15:09.282Z,100455.97
2017-11-20T23:17:35.070Z,100464.03
2017-11-20T23:20:00.949Z,100467.84
2017-11-20T23:22:27.239Z,100463.41
2017-11-20T23:24:53.048Z,100462.44
2017-11-20T23:27:18.854Z,100458.94
2017-11-20T23:29:45.403Z,100455.64
2017-11-20T23:32:11.196Z,100453.93
2017-11-20T23:34:36.985Z,100460.55
2017-11-20T23:37:03.072Z,100447.73
2017-11-20T23:39:28.873Z,100458.77
2017-11-20T23:41:54.674Z,100456.43
2017-11-20T23:44:20.473Z,100452.96
2017-11-20T23:46:46.248Z,100450.05
2017-11-20T23:49:12.980Z,100445.79
2017-11-20T23:51:38.815Z,100442.55
2017-11-20T23:54:04.606Z,100436.09
2017-11-20T23:56:30.408Z,100435.05
2017-11-20T23:58:56.372Z,100425.18
